createdAt,value
2018-07-01T00:00:24.771Z,18.40
2018-07-01T00:02:52.961Z,18.40
2018-07-01T00:05:21.142Z,18.40
2018-07-01T00:07:49.340Z,18.30
2018-07-01T00:10:17.531Z,18.40
2018-07-01T00:12:45.760Z,18.40
2018-07-01T00:15:13.940Z,18.50
2018-07-01T00:17:42.132Z,18.70
2018-07-01T00:20:10.572Z,18.70
2018-07-01T00:22:39.352Z,18.80
2018-07-01T00:25:07.839Z,18.70
2018-07-01T00:27:36.033Z,18.70
2018-07-01T00:30:04.775Z,18.70
2018-07-01T00:32:32.936Z,18.70
2018-07-01T00:35:01.176Z,18.70
2018-07-01T00:37:29.397Z,18.70
2018-07-01T00:39:57.561Z,18.70
2018-07-01T00:42:25.741Z,18.70
2018-07-01T00:44:53.965Z,18.60
2018-07-01T00:47:22.172Z,18.60
2018-07-01T00:49:50.347Z,18.50
2018-07-01T00:52:18.510Z,18.50
2018-07-01T00:54:46.772Z,18.40
2018-07-01T00:57:14.937Z,18.40
2018-07-01T00:59:43.116Z,18.40
2018-07-01T01:02:11.312Z,18.30
2018-07-01T01:04:39.555Z,18.30
2018-07-01T01:07:07.724Z,18.20
2018-07-01T01:09:35.894Z,18.20
2018-07-01T01:12:04.112Z,18.20
2018-07-01T01:14:32.373Z,18.10
2018-07-01T01:17:00.548Z,18.00
2018-07-01T01:19:29.440Z,18.00
2018-07-01T01:21:57.632Z,18.00
2018-07-01T01:24:25.852Z,18.00
2018-07-01T01:26:54.033Z,17.80
2018-07-01T01:29:22.243Z,17.80
2018-07-01T01:31:50.408Z,17.70
2018-07-01T01:34:18.584Z,17.60
2018-07-01T01:36:46.772Z,17.50
2018-07-01T01:39:19.752Z,17.50
2018-07-01T01:42:50.903Z,17.40
2018-07-01T01:45:23.495Z,17.30
2018-07-01T01:48:54.592Z,17.40
2018-07-01T01:51:41.973Z,17.30
2018-07-01T01:54:16.359Z,17.20
2018-07-01T01:56:52.589Z,17.20
2018-07-01T01:59:24.949Z,17.20
2018-07-01T02:02:03.384Z,17.20
2018-07-01T02:04:37.068Z,17.20
2018-07-01T02:07:09.697Z,17.10
2018-07-01T02:09:38.537Z,17.10
2018-07-01T02:12:09.044Z,17.00
2018-07-01T02:14:39.911Z,17.00
2018-07-01T02:17:12.219Z,17.00
2018-07-01T02:19:40.387Z,16.90
2018-07-01T02:22:10.888Z,17.00
2018-07-01T02:24:42.002Z,17.00
2018-07-01T02:29:38.384Z,16.90
2018-07-01T02:32:06.751Z,16.80
2018-07-01T02:34:35.019Z,16.70
2018-07-01T02:37:03.197Z,16.70
2018-07-01T02:39:31.389Z,16.70
2018-07-01T02:41:59.556Z,16.70
2018-07-01T02:44:27.857Z,16.70
2018-07-01T02:46:56.055Z,16.70
2018-07-01T02:49:24.227Z,16.60
2018-07-01T02:51:52.399Z,16.60
2018-07-01T02:54:20.625Z,16.60
2018-07-01T02:56:48.902Z,16.60
2018-07-01T02:59:17.084Z,16.60
2018-07-01T03:01:45.260Z,16.60
2018-07-01T03:04:13.526Z,16.50
2018-07-01T03:06:41.711Z,16.50
2018-07-01T03:09:11.977Z,16.50
2018-07-01T03:11:40.242Z,16.50
2018-07-01T03:14:08.211Z,16.40
2018-07-01T03:16:36.413Z,16.40
2018-07-01T03:19:04.879Z,16.40
2018-07-01T03:24:01.370Z,16.30
2018-07-01T03:26:29.685Z,16.30
2018-07-01T03:28:57.860Z,16.30
2018-07-01T03:31:26.031Z,16.30
2018-07-01T03:33:54.249Z,16.20
2018-07-01T03:36:22.421Z,16.20
2018-07-01T03:38:50.577Z,16.10
2018-07-01T03:43:46.753Z,16.10
2018-07-01T03:46:15.025Z,16.10
2018-07-01T03:48:43.216Z,16.10
2018-07-01T03:51:11.441Z,16.10
2018-07-01T03:53:39.759Z,16.00
2018-07-01T03:56:07.935Z,16.00
2018-07-01T03:58:36.879Z,16.10
2018-07-01T04:03:33.055Z,16.10
2018-07-01T04:06:01.224Z,16.10
2018-07-01T04:08:29.534Z,16.00
2018-07-01T04:10:57.704Z,16.00
2018-07-01T04:13:25.943Z,16.00
2018-07-01T04:15:54.119Z,16.00
2018-07-01T04:18:22.292Z,16.00
2018-07-01T04:20:50.559Z,16.10
2018-07-01T04:23:18.739Z,16.00
2018-07-01T04:25:47.000Z,16.10
2018-07-01T04:33:11.147Z,16.10
2018-07-01T04:35:39.324Z,16.20
2018-07-01T04:38:07.519Z,16.20
2018-07-01T04:40:35.703Z,16.20
2018-07-01T04:43:03.967Z,16.20
2018-07-01T04:45:32.160Z,16.20
2018-07-01T04:48:00.330Z,16.20
2018-07-01T04:50:28.535Z,16.30
2018-07-01T04:52:56.743Z,16.30
2018-07-01T04:55:24.919Z,16.30
2018-07-01T04:57:53.108Z,16.30
2018-07-01T05:00:21.796Z,16.40
2018-07-01T05:02:50.060Z,16.50
2018-07-01T05:05:18.239Z,16.50
2018-07-01T05:07:46.485Z,16.50
2018-07-01T05:10:14.661Z,16.60
2018-07-01T05:12:42.931Z,16.60
2018-07-01T05:15:11.139Z,16.70
2018-07-01T05:17:39.311Z,16.70
2018-07-01T05:20:07.564Z,16.70
2018-07-01T05:22:35.744Z,16.80
2018-07-01T05:25:04.007Z,16.90
2018-07-01T05:27:32.280Z,17.00
2018-07-01T05:30:00.407Z,17.00
2018-07-01T05:32:28.597Z,17.00
2018-07-01T05:37:24.783Z,17.10
2018-07-01T05:39:52.961Z,17.20
2018-07-01T05:42:21.145Z,17.30
2018-07-01T05:44:49.501Z,17.40
2018-07-01T05:47:17.792Z,17.50
2018-07-01T05:49:45.975Z,17.60
2018-07-01T05:52:14.767Z,17.70
2018-07-01T05:54:43.027Z,17.90
2018-07-01T05:57:11.301Z,18.00
2018-07-01T05:59:39.419Z,18.10
2018-07-01T06:02:07.596Z,18.30
2018-07-01T06:07:03.882Z,20.10
2018-07-01T06:09:32.998Z,21.60
2018-07-01T06:12:01.152Z,23.00
2018-07-01T06:14:29.453Z,23.90
2018-07-01T06:16:57.646Z,24.80
2018-07-01T06:19:25.859Z,25.80
2018-07-01T06:21:54.063Z,26.50
2018-07-01T06:24:22.340Z,26.60
2018-07-01T06:26:50.512Z,27.00
2018-07-01T06:29:18.696Z,27.00
2018-07-01T06:31:46.883Z,27.10
2018-07-01T06:34:15.126Z,27.50
2018-07-01T06:36:43.316Z,28.20
2018-07-01T06:39:11.755Z,28.60
2018-07-01T06:41:39.972Z,28.40
2018-07-01T06:44:08.202Z,28.80
2018-07-01T06:49:04.677Z,28.40
2018-07-01T06:51:33.886Z,28.00
2018-07-01T06:54:02.161Z,28.20
2018-07-01T06:56:30.799Z,27.70
2018-07-01T07:01:26.943Z,28.00
2018-07-01T07:06:23.148Z,28.30
2018-07-01T07:08:51.364Z,28.40
2018-07-01T07:16:15.545Z,27.90
2018-07-01T07:18:43.826Z,28.10
2018-07-01T07:21:12.015Z,27.80
2018-07-01T07:23:44.504Z,27.10
2018-07-01T07:26:12.784Z,26.60
2018-07-01T07:28:40.948Z,26.30
2018-07-01T07:36:05.195Z,25.40
2018-07-01T07:38:33.403Z,25.10
2018-07-01T07:41:01.580Z,25.10
2018-07-01T07:43:29.815Z,24.80
2018-07-01T07:45:58.097Z,24.60
2018-07-01T07:48:26.366Z,24.50
2018-07-01T07:50:54.544Z,24.20
2018-07-01T07:53:22.716Z,23.90
2018-07-01T07:55:50.912Z,23.80
2018-07-01T07:58:19.096Z,23.70
2018-07-01T08:00:47.286Z,23.60
2018-07-01T08:03:15.552Z,23.70
2018-07-01T08:05:43.733Z,23.50
2018-07-01T08:08:11.903Z,23.50
2018-07-01T08:10:40.072Z,23.50
2018-07-01T08:13:08.282Z,23.50
2018-07-01T08:15:36.524Z,23.50
2018-07-01T08:18:04.716Z,23.50
2018-07-01T08:20:32.952Z,23.70
2018-07-01T08:23:01.155Z,23.70
2018-07-01T08:25:29.400Z,23.60
2018-07-01T08:27:57.659Z,23.80
2018-07-01T08:30:25.868Z,23.90
2018-07-01T08:32:54.076Z,23.90
2018-07-01T08:35:22.281Z,24.10
2018-07-01T08:37:50.448Z,24.00
2018-07-01T08:40:18.781Z,24.10
2018-07-01T08:42:46.979Z,24.20
2018-07-01T08:45:15.294Z,24.20
2018-07-01T08:47:43.502Z,24.20
2018-07-01T08:50:11.672Z,24.30
2018-07-01T08:52:39.888Z,24.50
2018-07-01T08:55:08.079Z,24.40
2018-07-01T08:57:36.250Z,24.50
2018-07-01T09:00:05.824Z,24.60
2018-07-01T09:05:01.945Z,24.80
2018-07-01T09:07:30.124Z,25.00
2018-07-01T09:12:26.244Z,24.80
2018-07-01T09:14:54.480Z,24.80
2018-07-01T09:17:22.655Z,24.90
2018-07-01T09:19:50.817Z,24.90
2018-07-01T09:22:19.000Z,25.10
2018-07-01T09:24:47.205Z,25.30
2018-07-01T09:32:16.931Z,25.40
2018-07-01T09:34:45.312Z,25.50
2018-07-01T09:37:13.392Z,25.60
2018-07-01T09:39:41.597Z,25.80
2018-07-01T09:42:09.768Z,25.80
2018-07-01T09:44:37.988Z,26.00
2018-07-01T09:47:06.258Z,25.80
2018-07-01T09:49:34.424Z,25.80
2018-07-01T09:52:02.590Z,26.00
2018-07-01T09:54:30.881Z,26.20
2018-07-01T09:56:59.077Z,26.10
2018-07-01T09:59:27.263Z,26.10
2018-07-01T10:01:55.536Z,26.10
2018-07-01T10:04:23.701Z,26.20
2018-07-01T10:06:51.882Z,26.30
2018-07-01T10:09:20.095Z,26.50
2018-07-01T10:14:16.225Z,26.60
2018-07-01T10:16:44.450Z,26.70
2018-07-01T10:19:12.581Z,26.70
2018-07-01T10:24:08.745Z,26.90
2018-07-01T10:26:37.021Z,26.80
2018-07-01T10:29:08.414Z,26.80
2018-07-01T10:31:37.260Z,26.80
2018-07-01T10:34:06.145Z,26.80
2018-07-01T10:36:34.320Z,26.80
2018-07-01T10:39:02.552Z,26.80
2018-07-01T10:41:30.728Z,26.80
2018-07-01T10:43:59.543Z,26.80
2018-07-01T10:48:56.107Z,26.90
2018-07-01T10:51:24.402Z,27.00
2018-07-01T10:53:52.515Z,27.30
2018-07-01T10:56:20.712Z,27.50
2018-07-01T11:01:16.861Z,27.50
2018-07-01T11:08:40.956Z,27.30
2018-07-01T11:11:09.126Z,27.40
2018-07-01T11:13:37.308Z,27.70
2018-07-01T11:18:33.446Z,27.80
2018-07-01T11:21:02.075Z,27.70
2018-07-01T11:23:30.256Z,27.70
2018-07-01T11:25:59.223Z,27.60
2018-07-01T11:28:27.387Z,27.70
2018-07-01T11:30:55.687Z,27.80
2018-07-01T11:33:24.243Z,28.00
2018-07-01T11:38:20.371Z,28.00
2018-07-01T11:43:16.842Z,28.20
2018-07-01T11:45:45.172Z,28.10
2018-07-01T11:48:13.356Z,28.20
2018-07-01T11:50:41.769Z,28.20
2018-07-01T11:53:10.048Z,28.50
2018-07-01T11:55:38.219Z,28.40
2018-07-01T12:00:34.333Z,28.40
2018-07-01T12:03:02.511Z,28.50
2018-07-01T12:05:30.764Z,28.80
2018-07-01T12:10:26.815Z,28.90
2018-07-01T12:12:55.100Z,29.00
2018-07-01T12:15:23.335Z,28.90
2018-07-01T12:17:51.493Z,29.00
2018-07-01T12:20:19.692Z,29.00
2018-07-01T12:22:47.892Z,29.00
2018-07-01T12:25:16.712Z,28.80
2018-07-01T12:27:45.072Z,28.90
2018-07-01T12:32:41.196Z,29.00
2018-07-01T12:35:10.117Z,29.10
2018-07-01T12:37:38.411Z,29.20
2018-07-01T12:40:06.716Z,29.20
2018-07-01T12:42:34.935Z,29.20
2018-07-01T12:47:31.407Z,29.40
2018-07-01T12:49:59.608Z,29.40
2018-07-01T12:52:27.869Z,29.40
2018-07-01T12:54:56.043Z,29.50
2018-07-01T12:57:24.228Z,29.40
2018-07-01T12:59:52.430Z,29.60
2018-07-01T13:02:20.634Z,29.50
2018-07-01T13:04:48.788Z,29.50
2018-07-01T13:07:17.121Z,29.50
2018-07-01T13:09:45.292Z,29.50
2018-07-01T13:12:13.561Z,29.50
2018-07-01T13:14:41.716Z,29.60
2018-07-01T13:17:09.919Z,29.70
2018-07-01T13:19:38.112Z,29.60
2018-07-01T13:22:06.540Z,29.50
2018-07-01T13:24:34.737Z,29.40
2018-07-01T13:27:02.933Z,29.40
2018-07-01T13:29:31.156Z,29.70
2018-07-01T13:31:59.333Z,29.60
2018-07-01T13:34:27.533Z,29.60
2018-07-01T13:36:55.723Z,29.80
2018-07-01T13:39:23.909Z,29.80
2018-07-01T13:41:52.097Z,29.70
2018-07-01T13:44:20.289Z,29.60
2018-07-01T13:49:16.531Z,29.60
2018-07-01T13:51:44.671Z,29.70
2018-07-01T13:54:12.849Z,29.80
2018-07-01T13:56:41.099Z,29.80
2018-07-01T13:59:09.271Z,29.90
2018-07-01T14:01:37.517Z,29.90
2018-07-01T14:04:06.263Z,29.90
2018-07-01T14:06:34.392Z,29.90
2018-07-01T14:09:02.675Z,30.00
2018-07-01T14:11:30.907Z,30.20
2018-07-01T14:13:59.116Z,30.00
2018-07-01T14:16:27.265Z,30.10
2018-07-01T14:21:23.399Z,30.00
2018-07-01T14:23:51.865Z,30.20
2018-07-01T14:26:20.089Z,30.30
2018-07-01T14:28:48.237Z,30.20
2018-07-01T14:31:16.445Z,29.90
2018-07-01T14:33:44.624Z,29.80
2018-07-01T14:36:12.814Z,29.80
2018-07-01T14:38:40.988Z,29.90
2018-07-01T14:41:09.174Z,29.90
2018-07-01T14:43:37.410Z,29.90
2018-07-01T14:46:05.556Z,30.00
2018-07-01T14:48:33.797Z,30.00
2018-07-01T14:51:01.984Z,30.00
2018-07-01T14:53:30.232Z,30.20
2018-07-01T14:55:58.429Z,30.30
2018-07-01T14:58:26.625Z,30.30
2018-07-01T15:00:54.804Z,30.40
2018-07-01T15:03:23.064Z,30.10
2018-07-01T15:05:51.212Z,29.90
2018-07-01T15:08:19.403Z,29.90
2018-07-01T15:10:47.597Z,29.80
2018-07-01T15:13:15.799Z,29.90
2018-07-01T15:15:44.109Z,30.00
2018-07-01T15:18:12.296Z,30.10
2018-07-01T15:20:40.469Z,30.20
2018-07-01T15:23:08.649Z,30.10
2018-07-01T15:25:36.813Z,30.10
2018-07-01T15:28:04.980Z,30.10
2018-07-01T15:30:33.161Z,30.10
2018-07-01T15:33:01.354Z,30.00
2018-07-01T15:37:57.492Z,29.80
2018-07-01T15:42:53.637Z,30.00
2018-07-01T15:45:21.804Z,30.00
2018-07-01T15:50:17.929Z,30.00
2018-07-01T15:52:46.110Z,30.00
2018-07-01T15:55:14.285Z,29.80
2018-07-01T15:57:42.492Z,29.80
2018-07-01T16:00:10.672Z,29.80
2018-07-01T16:02:38.855Z,30.00
2018-07-01T16:05:07.043Z,29.90
2018-07-01T16:07:35.251Z,29.70
2018-07-01T16:10:03.478Z,29.60
2018-07-01T16:12:31.647Z,29.60
2018-07-01T16:14:59.929Z,29.50
2018-07-01T16:17:28.129Z,29.40
2018-07-01T16:19:56.324Z,29.40
2018-07-01T16:22:24.548Z,29.30
2018-07-01T16:24:58.143Z,29.00
2018-07-01T16:27:31.763Z,28.90
2018-07-01T16:30:01.677Z,29.00
2018-07-01T16:32:30.928Z,29.10
2018-07-01T16:39:55.183Z,29.00
2018-07-01T16:42:23.416Z,28.90
2018-07-01T16:47:19.796Z,28.80
2018-07-01T16:49:48.017Z,28.80
2018-07-01T16:52:16.218Z,28.70
2018-07-01T16:57:12.544Z,28.50
2018-07-01T16:59:41.796Z,28.50
2018-07-01T17:02:10.583Z,28.60
2018-07-01T17:04:38.876Z,28.50
2018-07-01T17:07:07.077Z,28.50
2018-07-01T17:09:35.253Z,28.60
2018-07-01T17:12:03.436Z,28.60
2018-07-01T17:14:31.660Z,28.70
2018-07-01T17:16:59.865Z,28.70
2018-07-01T17:19:28.072Z,28.60
2018-07-01T17:21:56.324Z,28.40
2018-07-01T17:24:24.649Z,28.40
2018-07-01T17:26:52.843Z,28.30
2018-07-01T17:29:21.016Z,28.10
2018-07-01T17:31:54.599Z,28.00
2018-07-01T17:34:22.902Z,28.00
2018-07-01T17:36:51.096Z,27.90
2018-07-01T17:39:19.335Z,28.00
2018-07-01T17:41:47.587Z,28.00
2018-07-01T17:44:15.873Z,28.00
2018-07-01T17:46:44.051Z,27.90
2018-07-01T17:49:12.240Z,27.80
2018-07-01T17:51:40.420Z,27.80
2018-07-01T17:54:08.648Z,27.80
2018-07-01T17:56:36.849Z,27.70
2018-07-01T17:59:05.033Z,27.60
2018-07-01T18:01:33.247Z,27.60
2018-07-01T18:04:02.324Z,27.50
2018-07-01T18:06:30.560Z,27.50
2018-07-01T18:08:58.767Z,27.40
2018-07-01T18:11:26.964Z,27.30
2018-07-01T18:13:55.201Z,27.20
2018-07-01T18:16:23.454Z,27.20
2018-07-01T18:21:20.515Z,27.10
2018-07-01T18:24:19.496Z,27.00
2018-07-01T18:26:16.260Z,26.90
2018-07-01T18:28:55.765Z,26.80
2018-07-01T18:31:12.632Z,26.70
2018-07-01T18:33:40.913Z,26.60
2018-07-01T18:36:09.117Z,26.60
2018-07-01T18:41:05.268Z,26.30
2018-07-01T18:43:33.467Z,26.30
2018-07-01T18:46:01.660Z,26.30
2018-07-01T18:48:30.716Z,26.30
2018-07-01T18:50:58.893Z,26.20
2018-07-01T18:53:27.194Z,26.10
2018-07-01T18:55:55.376Z,26.00
2018-07-01T18:58:23.717Z,26.00
2018-07-01T19:00:51.897Z,25.90
2018-07-01T19:03:20.147Z,26.00
2018-07-01T19:10:44.342Z,26.20
2018-07-01T19:13:12.647Z,26.30
2018-07-01T19:18:08.844Z,26.20
2018-07-01T19:20:37.194Z,26.50
2018-07-01T19:23:06.332Z,26.40
2018-07-01T19:28:02.528Z,25.90
2018-07-01T19:30:30.713Z,25.60
2018-07-01T19:34:02.016Z,25.20
2018-07-01T19:36:31.665Z,24.90
2018-07-01T19:38:59.885Z,24.50
2018-07-01T19:41:28.042Z,24.40
2018-07-01T19:43:56.328Z,24.20
2018-07-01T19:46:24.526Z,24.00
2018-07-01T19:48:53.436Z,23.90
2018-07-01T19:56:17.573Z,23.40
2018-07-01T19:58:45.770Z,23.30
2018-07-01T20:01:14.001Z,23.20
2018-07-01T20:03:42.204Z,23.10
2018-07-01T20:06:10.413Z,22.90
2018-07-01T20:08:38.560Z,22.80
2018-07-01T20:11:06.967Z,22.80
2018-07-01T20:13:35.227Z,22.70
2018-07-01T20:16:03.410Z,22.60
2018-07-01T20:18:31.618Z,22.60
2018-07-01T20:20:59.806Z,22.50
2018-07-01T20:23:28.420Z,22.40
2018-07-01T20:25:56.702Z,22.40
2018-07-01T20:28:24.879Z,22.30
2018-07-01T20:30:53.066Z,22.20
2018-07-01T20:33:21.301Z,22.20
2018-07-01T20:35:49.477Z,22.10
2018-07-01T20:38:17.923Z,22.00
2018-07-01T20:40:46.109Z,21.80
2018-07-01T20:43:14.408Z,21.70
2018-07-01T20:45:42.598Z,21.70
2018-07-01T20:48:10.858Z,21.60
2018-07-01T20:50:39.035Z,21.60
2018-07-01T20:53:07.330Z,21.40
2018-07-01T20:55:35.512Z,21.40
2018-07-01T20:58:03.736Z,21.40
2018-07-01T21:00:31.919Z,21.30
2018-07-01T21:03:00.192Z,21.20
2018-07-01T21:05:28.413Z,21.20
2018-07-01T21:07:56.583Z,21.10
2018-07-01T21:10:24.761Z,21.10
2018-07-01T21:12:53.032Z,20.90
2018-07-01T21:15:23.247Z,20.90
2018-07-01T21:17:51.786Z,20.80
2018-07-01T21:20:20.192Z,20.80
2018-07-01T21:22:48.493Z,20.80
2018-07-01T21:25:16.715Z,20.70
2018-07-01T21:27:45.048Z,20.60
2018-07-01T21:30:13.558Z,20.60
2018-07-01T21:32:41.740Z,20.50
2018-07-01T21:35:09.936Z,20.40
2018-07-01T21:37:38.104Z,20.30
2018-07-01T21:40:06.256Z,20.30
2018-07-01T21:42:34.455Z,20.20
2018-07-01T21:45:02.670Z,20.10
2018-07-01T21:47:31.026Z,20.10
2018-07-01T21:49:59.269Z,20.00
2018-07-01T21:52:27.423Z,19.90
2018-07-01T21:54:55.732Z,19.80
2018-07-01T21:57:23.945Z,19.80
2018-07-01T21:59:52.134Z,19.80
2018-07-01T22:04:48.280Z,19.70
2018-07-01T22:09:44.396Z,19.60
2018-07-01T22:12:24.000Z,19.50
2018-07-01T22:15:03.612Z,19.50
2018-07-01T22:17:32.756Z,19.40
2018-07-01T22:20:00.939Z,19.30
2018-07-01T22:22:29.168Z,19.20
2018-07-01T22:24:57.461Z,19.20
2018-07-01T22:27:25.643Z,19.10
2018-07-01T22:29:53.854Z,19.10
2018-07-01T22:32:22.048Z,19.00
2018-07-01T22:37:18.285Z,18.80
2018-07-01T22:39:46.499Z,18.70
2018-07-01T22:42:14.701Z,18.60
2018-07-01T22:44:42.936Z,18.60
2018-07-01T22:47:11.261Z,18.50
2018-07-01T22:49:39.456Z,18.50
2018-07-01T22:52:07.700Z,18.40
2018-07-01T22:54:35.977Z,18.30
2018-07-01T22:57:04.169Z,18.30
2018-07-01T22:59:32.376Z,18.20
2018-07-01T23:03:10.989Z,18.10
2018-07-01T23:05:39.192Z,18.10
2018-07-01T23:08:07.375Z,18.00
2018-07-01T23:10:35.585Z,17.90
2018-07-01T23:13:03.887Z,17.90
2018-07-01T23:15:32.131Z,17.80
2018-07-01T23:18:00.309Z,17.80
2018-07-01T23:20:28.519Z,17.80
2018-07-01T23:22:56.712Z,17.70
2018-07-01T23:25:24.918Z,17.70
2018-07-01T23:27:53.089Z,17.70
2018-07-01T23:30:21.273Z,17.60
2018-07-01T23:32:49.491Z,17.60
2018-07-01T23:35:17.674Z,17.60
2018-07-01T23:37:45.865Z,17.50
2018-07-01T23:40:14.040Z,17.50
2018-07-01T23:42:42.785Z,17.50
2018-07-01T23:45:12.309Z,17.40
2018-07-01T23:47:40.468Z,17.30
2018-07-01T23:50:08.964Z,17.40
2018-07-01T23:52:37.454Z,17.40
2018-07-01T23:55:06.192Z,17.30
2018-07-01T23:57:34.375Z,17.30
